createdAt,value
2023-01-28T00:00:17.512Z,0.30
2023-01-28T00:02:49.891Z,0.30
2023-01-28T00:05:19.189Z,0.30
2023-01-28T00:07:51.113Z,0.30
2023-01-28T00:10:22.731Z,0.30
2023-01-28T00:12:52.581Z,0.30
2023-01-28T00:15:21.536Z,0.20
2023-01-28T00:17:50.710Z,0.30
2023-01-28T00:20:19.887Z,0.30
2023-01-28T00:22:52.100Z,0.30
2023-01-28T00:25:23.020Z,0.40
2023-01-28T00:27:52.271Z,0.30
2023-01-28T00:30:21.299Z,0.30
2023-01-28T00:32:50.505Z,0.30
2023-01-28T00:35:21.677Z,0.30
2023-01-28T00:37:51.411Z,0.30
2023-01-28T00:40:22.367Z,0.30
2023-01-28T00:42:52.255Z,0.30
2023-01-28T00:45:23.065Z,0.30
2023-01-28T00:47:52.269Z,0.30
2023-01-28T00:50:22.908Z,0.50
2023-01-28T00:52:52.047Z,0.30
2023-01-28T00:55:22.652Z,0.20
2023-01-28T00:57:52.045Z,0.20
2023-01-28T01:00:22.216Z,0.20
2023-01-28T01:02:51.455Z,0.20
2023-01-28T01:05:20.707Z,0.90
2023-01-28T01:07:50.083Z,0.30
2023-01-28T01:10:22.182Z,0.30
2023-01-28T01:12:52.257Z,0.30
2023-01-28T01:15:22.055Z,0.30
2023-01-28T01:17:52.326Z,0.30
2023-01-28T01:20:24.530Z,0.30
2023-01-28T01:22:53.921Z,0.40
2023-01-28T01:25:24.847Z,0.40
2023-01-28T01:27:53.829Z,0.40
2023-01-28T01:30:22.951Z,0.40
2023-01-28T01:32:52.051Z,0.30
2023-01-28T01:35:21.049Z,0.40
2023-01-28T01:37:50.112Z,0.30
2023-01-28T01:40:19.488Z,0.30
2023-01-28T01:42:50.278Z,0.30
2023-01-28T01:45:19.498Z,0.20
2023-01-28T01:47:53.251Z,0.30
2023-01-28T01:50:28.699Z,0.40
2023-01-28T01:53:02.335Z,0.40
2023-01-28T01:55:37.646Z,0.90
2023-01-28T01:58:12.084Z,0.40
2023-01-28T02:00:42.354Z,0.40
2023-01-28T02:03:12.131Z,0.40
2023-01-28T02:05:41.719Z,0.30
2023-01-28T02:08:23.195Z,0.90
2023-01-28T02:10:56.929Z,0.20
2023-01-28T02:13:32.523Z,0.20
2023-01-28T02:16:04.361Z,0.10
2023-01-28T02:18:35.144Z,0.40
2023-01-28T02:21:28.297Z,0.20
2023-01-28T02:24:26.531Z,0.10
2023-01-28T02:27:16.549Z,0.10
2023-01-28T02:29:52.551Z,0.10
2023-01-28T02:32:27.542Z,0.10
2023-01-28T02:35:05.455Z,0.10
2023-01-28T02:37:40.014Z,0.00
2023-01-28T02:40:13.940Z,0.00
2023-01-28T02:42:43.487Z,-0.10
2023-01-28T02:45:46.988Z,-0.30
2023-01-28T02:48:16.097Z,0.00
2023-01-28T02:50:54.121Z,0.80
2023-01-28T02:53:44.232Z,0.30
2023-01-28T02:56:29.759Z,0.20
2023-01-28T02:59:23.216Z,-0.30
2023-01-28T03:02:02.005Z,-0.10
2023-01-28T03:04:34.992Z,0.00
2023-01-28T03:07:08.443Z,0.00
2023-01-28T03:09:41.087Z,-0.10
2023-01-28T03:12:31.149Z,-0.10
2023-01-28T03:15:19.884Z,0.00
2023-01-28T03:18:11.509Z,-0.10
2023-01-28T03:21:06.266Z,-0.10
2023-01-28T03:23:59.505Z,0.00
2023-01-28T03:26:50.325Z,0.40
2023-01-28T03:29:40.552Z,-0.10
2023-01-28T03:32:31.212Z,-0.10
2023-01-28T03:35:19.385Z,0.50
2023-01-28T03:37:49.000Z,0.60
2023-01-28T03:40:24.290Z,-0.20
2023-01-28T03:42:54.545Z,-0.10
2023-01-28T03:45:34.527Z,-0.20
2023-01-28T03:48:06.198Z,0.10
2023-01-28T03:50:36.738Z,-0.20
2023-01-28T03:53:16.565Z,-0.10
2023-01-28T03:55:55.379Z,0.70
2023-01-28T03:58:27.518Z,-0.20
2023-01-28T04:00:57.066Z,0.40
2023-01-28T04:03:26.046Z,0.50
2023-01-28T04:06:04.616Z,-0.20
2023-01-28T04:08:55.222Z,-0.20
2023-01-28T04:11:53.621Z,0.00
2023-01-28T04:14:35.240Z,-0.20
2023-01-28T04:17:11.581Z,0.00
2023-01-28T04:19:41.333Z,-0.20
2023-01-28T04:22:13.227Z,-0.20
2023-01-28T04:24:44.162Z,-0.30
2023-01-28T04:27:13.610Z,-0.20
2023-01-28T04:29:43.089Z,-0.20
2023-01-28T04:32:30.860Z,-0.20
2023-01-28T04:35:11.358Z,-0.30
2023-01-28T04:38:14.092Z,-0.30
2023-01-28T04:41:09.280Z,-0.30
2023-01-28T04:43:38.569Z,-0.30
2023-01-28T04:46:36.654Z,-0.30
2023-01-28T04:49:17.087Z,0.10
2023-01-28T04:51:54.540Z,-0.30
2023-01-28T04:54:25.383Z,-0.30
2023-01-28T04:56:58.011Z,-0.30
2023-01-28T04:59:27.283Z,-0.20
2023-01-28T05:01:56.489Z,-0.30
2023-01-28T05:04:25.857Z,-0.30
2023-01-28T05:06:55.399Z,-0.30
2023-01-28T05:09:30.772Z,0.00
2023-01-28T05:12:00.129Z,1.10
2023-01-28T05:14:28.873Z,-0.30
2023-01-28T05:17:09.733Z,0.50
2023-01-28T05:19:41.192Z,-0.30
2023-01-28T05:22:16.960Z,-0.30
2023-01-28T05:24:52.687Z,-0.20
2023-01-28T05:27:22.837Z,-0.30
2023-01-28T05:29:54.108Z,-0.10
2023-01-28T05:32:23.383Z,0.20
2023-01-28T05:34:52.791Z,-0.30
2023-01-28T05:37:21.703Z,-0.30
2023-01-28T05:39:56.244Z,0.00
2023-01-28T05:42:25.803Z,-0.30
2023-01-28T05:45:09.904Z,-0.30
2023-01-28T05:47:58.980Z,-0.30
2023-01-28T05:50:40.959Z,0.00
2023-01-28T05:53:24.029Z,-0.30
2023-01-28T05:55:56.037Z,-0.30
2023-01-28T05:58:28.434Z,-0.30
2023-01-28T06:00:58.024Z,-0.30
2023-01-28T06:03:33.320Z,-0.30
2023-01-28T06:06:02.355Z,-0.30
2023-01-28T06:08:31.628Z,-0.30
2023-01-28T06:11:03.209Z,-0.30
2023-01-28T06:13:35.302Z,0.00
2023-01-28T06:16:24.722Z,-0.30
2023-01-28T06:19:12.449Z,-0.30
2023-01-28T06:21:43.662Z,0.20
2023-01-28T06:24:14.433Z,-0.30
2023-01-28T06:26:45.644Z,-0.30
2023-01-28T06:29:14.841Z,-0.30
2023-01-28T06:31:43.994Z,-0.30
2023-01-28T06:34:13.785Z,-0.30
2023-01-28T06:36:42.988Z,-0.30
2023-01-28T06:39:12.202Z,0.10
2023-01-28T06:41:41.788Z,-0.30
2023-01-28T06:44:13.210Z,-0.30
2023-01-28T06:46:42.344Z,-0.30
2023-01-28T06:49:11.165Z,-0.30
2023-01-28T06:51:40.354Z,-0.30
2023-01-28T06:54:09.490Z,-0.30
2023-01-28T06:56:38.527Z,-0.30
2023-01-28T06:59:08.157Z,0.10
2023-01-28T07:01:39.333Z,-0.30
2023-01-28T07:04:09.297Z,-0.30
2023-01-28T07:06:38.531Z,0.10
2023-01-28T07:09:07.229Z,-0.30
2023-01-28T07:11:37.513Z,-0.30
2023-01-28T07:14:06.683Z,1.00
2023-01-28T07:16:36.163Z,-0.30
2023-01-28T07:19:09.806Z,-0.30
2023-01-28T07:21:39.075Z,-0.30
2023-01-28T07:24:08.849Z,0.00
2023-01-28T07:26:37.954Z,-0.30
2023-01-28T07:29:07.252Z,-0.10
2023-01-28T07:31:36.628Z,-0.30
2023-01-28T07:34:07.658Z,-0.30
2023-01-28T07:36:37.127Z,-0.20
2023-01-28T07:39:07.518Z,-0.30
2023-01-28T07:41:36.548Z,-0.20
2023-01-28T07:44:09.433Z,0.00
2023-01-28T07:46:38.357Z,-0.20
2023-01-28T07:49:08.654Z,-0.20
2023-01-28T07:51:37.536Z,0.10
2023-01-28T07:54:06.675Z,-0.20
2023-01-28T07:56:35.793Z,-0.20
2023-01-28T07:59:04.690Z,0.50
2023-01-28T08:01:33.778Z,-0.20
2023-01-28T08:04:02.844Z,-0.20
2023-01-28T08:06:38.179Z,-0.20
2023-01-28T08:09:08.665Z,-0.30
2023-01-28T08:11:41.266Z,-0.20
2023-01-28T08:14:10.230Z,-0.20
2023-01-28T08:16:39.788Z,-0.20
2023-01-28T08:19:08.975Z,-0.20
2023-01-28T08:21:40.077Z,-0.20
2023-01-28T08:24:09.775Z,0.10
2023-01-28T08:26:38.925Z,-0.20
2023-01-28T08:29:07.679Z,-0.20
2023-01-28T08:31:37.045Z,-0.20
2023-01-28T08:34:06.607Z,-0.20
2023-01-28T08:36:35.553Z,-0.20
2023-01-28T08:39:10.873Z,-0.20
2023-01-28T08:41:39.976Z,-0.20
2023-01-28T08:44:08.771Z,-0.20
2023-01-28T08:46:37.807Z,-0.10
2023-01-28T08:49:06.987Z,0.10
2023-01-28T08:51:36.107Z,0.00
2023-01-28T08:54:06.870Z,0.50
2023-01-28T08:56:35.952Z,0.00
2023-01-28T08:59:05.088Z,0.00
2023-01-28T09:01:34.588Z,0.00
2023-01-28T09:04:04.457Z,0.10
2023-01-28T09:06:33.832Z,0.30
2023-01-28T09:09:03.470Z,0.10
2023-01-28T09:11:36.585Z,0.20
2023-01-28T09:14:05.565Z,0.20
2023-01-28T09:16:35.758Z,0.10
2023-01-28T09:19:04.480Z,0.10
2023-01-28T09:21:33.360Z,0.10
2023-01-28T09:24:05.094Z,0.10
2023-01-28T09:26:36.133Z,0.20
2023-01-28T09:29:05.455Z,0.20
2023-01-28T09:31:35.032Z,0.20
2023-01-28T09:34:04.691Z,0.80
2023-01-28T09:36:33.714Z,0.10
2023-01-28T09:39:03.326Z,0.10
2023-01-28T09:41:46.495Z,0.60
2023-01-28T09:44:31.282Z,0.10
2023-01-28T09:47:03.846Z,0.30
2023-01-28T09:49:40.506Z,0.10
2023-01-28T09:52:16.573Z,0.10
2023-01-28T09:54:50.294Z,0.10
2023-01-28T09:57:25.433Z,0.10
2023-01-28T09:59:54.730Z,0.10
2023-01-28T10:02:37.172Z,0.10
2023-01-28T10:05:18.466Z,0.10
2023-01-28T10:07:56.987Z,0.10
2023-01-28T10:10:32.045Z,0.10
2023-01-28T10:13:25.839Z,0.20
2023-01-28T10:16:14.224Z,0.20
2023-01-28T10:18:48.630Z,0.20
2023-01-28T10:21:23.858Z,0.30
2023-01-28T10:24:00.928Z,0.40
2023-01-28T10:26:36.103Z,0.40
2023-01-28T10:29:14.793Z,0.40
2023-01-28T10:31:52.897Z,0.50
2023-01-28T10:34:23.777Z,0.50
2023-01-28T10:36:53.270Z,0.50
2023-01-28T10:39:24.984Z,1.00
2023-01-28T10:41:58.745Z,0.50
2023-01-28T10:44:36.503Z,0.60
2023-01-28T10:47:11.812Z,0.60
2023-01-28T10:49:45.887Z,0.60
2023-01-28T10:52:16.218Z,0.50
2023-01-28T10:54:45.279Z,0.60
2023-01-28T10:57:17.864Z,0.40
2023-01-28T10:59:50.422Z,0.40
2023-01-28T11:02:28.807Z,0.40
2023-01-28T11:05:06.640Z,0.40
2023-01-28T11:07:36.010Z,1.30
2023-01-28T11:10:05.358Z,0.50
2023-01-28T11:12:34.588Z,0.40
2023-01-28T11:15:07.570Z,0.50
2023-01-28T11:17:40.164Z,0.30
2023-01-28T11:20:15.991Z,0.30
2023-01-28T11:22:46.654Z,0.30
2023-01-28T11:25:20.921Z,0.40
2023-01-28T11:27:51.562Z,0.30
2023-01-28T11:30:28.647Z,0.30
2023-01-28T11:33:00.532Z,0.30
2023-01-28T11:35:32.260Z,0.40
2023-01-28T11:38:02.047Z,0.50
2023-01-28T11:40:31.639Z,0.50
2023-01-28T11:43:00.804Z,0.60
2023-01-28T11:45:45.848Z,1.80
2023-01-28T11:48:29.057Z,0.40
2023-01-28T11:51:05.671Z,0.40
2023-01-28T11:53:50.960Z,0.40
2023-01-28T11:56:33.688Z,0.40
2023-01-28T11:59:19.732Z,0.50
2023-01-28T12:01:59.699Z,0.50
2023-01-28T12:04:48.476Z,0.40
2023-01-28T12:07:34.330Z,0.50
2023-01-28T12:10:10.957Z,0.40
2023-01-28T12:13:04.154Z,0.50
2023-01-28T12:16:21.196Z,0.50
2023-01-28T12:19:37.801Z,0.60
2023-01-28T12:22:22.840Z,0.40
2023-01-28T12:25:07.729Z,0.40
2023-01-28T12:27:47.227Z,0.40
2023-01-28T12:30:27.119Z,0.80
2023-01-28T12:33:16.071Z,0.50
2023-01-28T12:35:59.007Z,0.50
2023-01-28T12:38:43.443Z,0.50
2023-01-28T12:41:15.540Z,0.40
2023-01-28T12:43:59.203Z,0.40
2023-01-28T12:46:43.284Z,0.40
2023-01-28T12:49:18.672Z,0.70
2023-01-28T12:51:59.197Z,0.40
2023-01-28T12:54:37.381Z,0.30
2023-01-28T12:57:08.058Z,0.30
2023-01-28T12:59:45.754Z,0.30
2023-01-28T13:02:23.912Z,-0.10
2023-01-28T13:05:01.085Z,0.30
2023-01-28T13:07:37.016Z,0.20
2023-01-28T13:10:13.939Z,0.10
2023-01-28T13:12:43.702Z,0.00
2023-01-28T13:15:15.781Z,0.00
2023-01-28T13:17:56.648Z,-0.10
2023-01-28T13:20:38.234Z,-0.20
2023-01-28T13:23:23.369Z,-0.20
2023-01-28T13:25:55.976Z,-0.30
2023-01-28T13:28:29.556Z,-0.30
2023-01-28T13:31:05.108Z,-0.30
2023-01-28T13:33:36.348Z,0.10
2023-01-28T13:36:18.873Z,-0.30
2023-01-28T13:38:48.731Z,-0.30
2023-01-28T13:41:20.486Z,0.10
2023-01-28T13:43:49.879Z,-0.10
2023-01-28T13:46:29.903Z,-0.40
2023-01-28T13:49:01.627Z,-0.40
2023-01-28T13:51:34.460Z,0.30
2023-01-28T13:54:07.260Z,-0.50
2023-01-28T13:56:53.396Z,-0.60
2023-01-28T13:59:40.426Z,-0.50
2023-01-28T14:02:54.643Z,-0.30
2023-01-28T14:06:03.572Z,-0.70
2023-01-28T14:08:53.898Z,-0.70
2023-01-28T14:11:42.346Z,-0.70
2023-01-28T14:14:38.617Z,-0.70
2023-01-28T14:17:18.531Z,-0.70
2023-01-28T14:19:48.356Z,-0.20
2023-01-28T14:22:20.930Z,-0.70
2023-01-28T14:24:51.222Z,-0.80
2023-01-28T14:27:32.574Z,-0.60
2023-01-28T14:30:16.857Z,-0.80
2023-01-28T14:32:49.473Z,-0.80
2023-01-28T14:35:24.079Z,-0.40
2023-01-28T14:37:54.179Z,-0.80
2023-01-28T14:40:23.992Z,-0.80
2023-01-28T14:42:56.694Z,-0.80
2023-01-28T14:45:40.447Z,-0.80
2023-01-28T14:48:25.755Z,-0.90
2023-01-28T14:51:16.301Z,-0.90
2023-01-28T14:54:05.319Z,-0.90
2023-01-28T14:56:44.543Z,-1.00
2023-01-28T14:59:21.583Z,-0.10
2023-01-28T15:01:57.910Z,-0.90
2023-01-28T15:04:28.956Z,-0.20
2023-01-28T15:06:59.853Z,-1.00
2023-01-28T15:09:29.058Z,-0.30
2023-01-28T15:12:02.079Z,-0.90
2023-01-28T15:14:34.420Z,-1.00
2023-01-28T15:17:06.130Z,-1.00
2023-01-28T15:19:38.229Z,-0.80
2023-01-28T15:22:09.874Z,-0.50
2023-01-28T15:24:43.699Z,-0.30
2023-01-28T15:27:20.250Z,-1.10
2023-01-28T15:29:55.377Z,-1.10
2023-01-28T15:32:29.000Z,-0.90
2023-01-28T15:35:01.143Z,-1.20
2023-01-28T15:37:30.725Z,-1.20
2023-01-28T15:40:06.723Z,-1.20
2023-01-28T15:42:38.927Z,-1.20
2023-01-28T15:45:18.688Z,-1.30
2023-01-28T15:47:51.185Z,-1.20
2023-01-28T15:50:23.173Z,-1.20
2023-01-28T15:52:55.981Z,-1.30
2023-01-28T15:55:40.749Z,-1.30
2023-01-28T15:58:22.470Z,-1.30
2023-01-28T16:00:52.382Z,-1.30
2023-01-28T16:03:26.377Z,-1.30
2023-01-28T16:06:01.957Z,-1.30
2023-01-28T16:08:39.944Z,-1.30
2023-01-28T16:11:11.817Z,-1.40
2023-01-28T16:13:45.431Z,-1.40
2023-01-28T16:16:15.067Z,-1.40
2023-01-28T16:18:49.465Z,-1.40
2023-01-28T16:21:24.448Z,-1.50
2023-01-28T16:23:54.791Z,-1.40
2023-01-28T16:26:25.955Z,-1.40
2023-01-28T16:28:55.357Z,-1.50
2023-01-28T16:31:28.048Z,-1.40
2023-01-28T16:33:58.965Z,-1.50
2023-01-28T16:36:28.975Z,-1.50
2023-01-28T16:41:31.684Z,-1.50
2023-01-28T16:44:06.055Z,-1.50
2023-01-28T16:46:35.406Z,-1.50
2023-01-28T16:49:07.849Z,-1.50
2023-01-28T16:51:39.030Z,-1.50
2023-01-28T16:54:09.687Z,-1.50
2023-01-28T16:56:47.056Z,-1.50
2023-01-28T16:59:19.275Z,-1.50
2023-01-28T17:01:51.797Z,-1.60
2023-01-28T17:04:24.294Z,-1.30
2023-01-28T17:06:54.108Z,-1.50
2023-01-28T17:09:23.144Z,-1.60
2023-01-28T17:11:52.800Z,-1.60
2023-01-28T17:14:26.491Z,-1.70
2023-01-28T17:16:57.588Z,-1.70
2023-01-28T17:19:28.334Z,-1.70
2023-01-28T17:21:57.839Z,-1.70
2023-01-28T17:24:27.048Z,-1.70
2023-01-28T17:26:57.542Z,-1.70
2023-01-28T17:29:26.873Z,-1.70
2023-01-28T17:31:56.485Z,-1.70
2023-01-28T17:34:31.852Z,-1.80
2023-01-28T17:37:01.759Z,-1.80
2023-01-28T17:39:31.336Z,-1.80
2023-01-28T17:42:00.823Z,-1.70
2023-01-28T17:44:29.932Z,-1.80
2023-01-28T17:46:59.343Z,-1.70
2023-01-28T17:49:32.012Z,-1.80
2023-01-28T17:52:01.008Z,-1.80
2023-01-28T17:54:30.589Z,-1.80
2023-01-28T17:57:00.227Z,-1.30
2023-01-28T17:59:30.531Z,-1.80
2023-01-28T18:02:00.582Z,-1.80
2023-01-28T18:04:33.300Z,-1.80
2023-01-28T18:07:03.066Z,-1.80
2023-01-28T18:09:32.282Z,-1.90
2023-01-28T18:12:03.397Z,-1.40
2023-01-28T18:14:32.618Z,-1.80
2023-01-28T18:17:05.877Z,-1.90
2023-01-28T18:19:38.177Z,-1.90
2023-01-28T18:22:07.519Z,-1.90
2023-01-28T18:24:37.143Z,-1.90
2023-01-28T18:27:06.857Z,-1.90
2023-01-28T18:29:36.164Z,-1.90
2023-01-28T18:32:05.728Z,-2.00
2023-01-28T18:34:36.768Z,-2.00
2023-01-28T18:37:08.135Z,-2.00
2023-01-28T18:39:38.677Z,-2.00
2023-01-28T18:42:09.368Z,-2.00
2023-01-28T18:44:39.219Z,-1.70
2023-01-28T18:47:08.329Z,-1.50
2023-01-28T18:49:42.651Z,-1.90
2023-01-28T18:52:12.100Z,-1.90
2023-01-28T18:54:41.426Z,-1.90
2023-01-28T18:57:11.179Z,-1.90
2023-01-28T18:59:39.681Z,-2.00
2023-01-28T19:02:09.636Z,-1.90
2023-01-28T19:04:40.663Z,-1.80
2023-01-28T19:07:11.910Z,-1.70
2023-01-28T19:09:41.739Z,-1.40
2023-01-28T19:12:12.368Z,-1.90
2023-01-28T19:14:41.811Z,-1.90
2023-01-28T19:17:10.933Z,-1.90
2023-01-28T19:19:41.662Z,-1.90
2023-01-28T19:22:11.450Z,-1.30
2023-01-28T19:24:40.843Z,-1.80
2023-01-28T19:27:11.466Z,-1.40
2023-01-28T19:29:40.838Z,-1.80
2023-01-28T19:32:11.866Z,-1.40
2023-01-28T19:34:42.248Z,-1.80
2023-01-28T19:37:13.697Z,-1.80
2023-01-28T19:39:43.051Z,-1.70
2023-01-28T19:42:14.058Z,-1.70
2023-01-28T19:44:43.539Z,-1.70
2023-01-28T19:47:13.317Z,-1.70
2023-01-28T19:49:44.111Z,-1.60
2023-01-28T19:52:13.757Z,-1.00
2023-01-28T19:54:42.947Z,-1.70
2023-01-28T19:57:15.367Z,-1.70
2023-01-28T19:59:44.949Z,-1.60
2023-01-28T20:02:14.160Z,-1.40
2023-01-28T20:04:59.591Z,-1.60
2023-01-28T20:07:30.207Z,-1.30
2023-01-28T20:09:59.932Z,-1.60
2023-01-28T20:12:29.972Z,-1.50
2023-01-28T20:14:59.521Z,-1.60
2023-01-28T20:17:29.560Z,-1.60
2023-01-28T20:20:00.351Z,-1.60
2023-01-28T20:22:31.840Z,-1.70
2023-01-28T20:25:01.313Z,-1.60
2023-01-28T20:27:31.478Z,-1.20
2023-01-28T20:30:01.918Z,-1.60
2023-01-28T20:32:31.335Z,-1.70
2023-01-28T20:35:03.949Z,-1.70
2023-01-28T20:37:35.708Z,-1.60
2023-01-28T20:40:05.064Z,-2.40
2023-01-28T20:42:36.294Z,-1.20
2023-01-28T20:45:12.553Z,-1.60
2023-01-28T20:47:49.076Z,-1.60
2023-01-28T20:50:19.896Z,-2.30
2023-01-28T20:52:49.128Z,-1.60
2023-01-28T20:55:18.777Z,-1.70
2023-01-28T20:57:48.208Z,-1.60
2023-01-28T21:00:18.453Z,-1.70
2023-01-28T21:02:48.250Z,-1.70
2023-01-28T21:05:19.937Z,-1.70
2023-01-28T21:07:49.171Z,-1.40
2023-01-28T21:10:19.449Z,-1.70
2023-01-28T21:12:48.931Z,-1.70
2023-01-28T21:15:18.570Z,-1.70
2023-01-28T21:17:48.656Z,-1.70
2023-01-28T21:20:20.590Z,-1.70
2023-01-28T21:22:52.666Z,-1.70
2023-01-28T21:25:22.854Z,-1.70
2023-01-28T21:27:52.083Z,-1.70
2023-01-28T21:30:21.650Z,-1.70
2023-01-28T21:32:50.846Z,-1.70
2023-01-28T21:35:21.694Z,-1.70
2023-01-28T21:37:50.926Z,-1.60
2023-01-28T21:40:21.201Z,-1.60
2023-01-28T21:42:50.673Z,-1.60
2023-01-28T21:45:20.199Z,-1.60
2023-01-28T21:47:49.855Z,-1.70
2023-01-28T21:50:19.781Z,-1.70
2023-01-28T21:52:54.450Z,-1.80
2023-01-28T21:55:23.747Z,-1.80
2023-01-28T21:58:14.535Z,-1.80
2023-01-28T22:00:42.578Z,-1.80
2023-01-28T22:03:11.885Z,-1.70
2023-01-28T22:05:44.405Z,-1.70
2023-01-28T22:08:15.369Z,-1.70
2023-01-28T22:10:45.227Z,-1.30
2023-01-28T22:13:14.316Z,-1.70
2023-01-28T22:15:43.630Z,-1.70
2023-01-28T22:18:15.246Z,-1.80
2023-01-28T22:20:44.981Z,-1.30
2023-01-28T22:23:15.146Z,-1.70
2023-01-28T22:25:44.675Z,-1.70
2023-01-28T22:28:14.696Z,-1.60
2023-01-28T22:30:45.709Z,-1.50
2023-01-28T22:33:17.464Z,-1.70
2023-01-28T22:35:46.876Z,-1.70
2023-01-28T22:38:17.949Z,-1.80
2023-01-28T22:40:47.621Z,-1.80
2023-01-28T22:43:16.872Z,-1.80
2023-01-28T22:45:46.280Z,-1.80
2023-01-28T22:48:15.853Z,-1.70
2023-01-28T22:50:45.274Z,-1.70
2023-01-28T22:53:14.379Z,-1.70
2023-01-28T22:55:45.943Z,-1.70
2023-01-28T22:58:15.180Z,-1.60
2023-01-28T23:00:46.232Z,-1.60
2023-01-28T23:03:15.302Z,-1.60
2023-01-28T23:05:45.348Z,-1.50
2023-01-28T23:08:14.878Z,-1.50
2023-01-28T23:10:50.791Z,-1.50
2023-01-28T23:13:21.008Z,-1.50
2023-01-28T23:16:08.639Z,-1.40
2023-01-28T23:18:56.971Z,-1.10
2023-01-28T23:22:00.037Z,-0.80
2023-01-28T23:24:33.154Z,-1.40
2023-01-28T23:27:04.810Z,-1.40
2023-01-28T23:29:34.774Z,-1.40
2023-01-28T23:32:05.781Z,-1.40
2023-01-28T23:34:38.636Z,-1.30
2023-01-28T23:37:10.081Z,-1.40
2023-01-28T23:39:39.133Z,-1.40
2023-01-28T23:42:23.965Z,-1.40
2023-01-28T23:44:55.838Z,-1.30
2023-01-28T23:47:25.467Z,-1.40
2023-01-28T23:49:54.933Z,-1.40
2023-01-28T23:52:24.219Z,-1.50
2023-01-28T23:54:53.327Z,-1.30
2023-01-28T23:57:23.860Z,-1.60
2023-01-28T23:59:53.468Z,-1.50
